CXA542 CHB3-CYCB
Flight info
| Callsign | CXA542 |
|---|---|
| Flight time | N/A |
| Altitude | 3500 |
| Route | CB |
| Aircraft | C172/L-SDFGR/C |
Departure
| Time | N/A |
|---|---|
| Airport | CHB3 |
Arrival
| Time | 2026-05-04 00:52 |
|---|---|
| Airport | Cambridge Bay Airport (CYCB) |
| Time | Latitude | Longitude | Altitude | Speed | Heading |
|---|---|---|---|---|---|
| 2026-05-03 23:41 | 68.15547 | -106.61706 | 150 ft | 0 kts | 281° |
| 2026-05-04 00:08 | 68.15549 | -106.61738 | 154 ft | 6 kts | 279° |
| 2026-05-04 00:08 | 68.15583 | -106.61839 | 154 ft | 12 kts | 9° |
| 2026-05-04 00:09 | 68.15865 | -106.61674 | 148 ft | 68 kts | 15° |
| 2026-05-04 00:09 | 68.16427 | -106.61569 | 273 ft | 88 kts | 10° |
| 2026-05-04 00:09 | 68.17034 | -106.61134 | 494 ft | 91 kts | 38° |
| 2026-05-04 00:09 | 68.17622 | -106.60167 | 633 ft | 107 kts | 34° |
| 2026-05-04 00:10 | 68.18284 | -106.59161 | 749 ft | 112 kts | 34° |
| 2026-05-04 00:10 | 68.18987 | -106.58238 | 925 ft | 111 kts | 28° |
| 2026-05-04 00:10 | 68.19731 | -106.57616 | 1094 ft | 113 kts | 21° |
| 2026-05-04 00:10 | 68.20501 | -106.56984 | 1161 ft | 119 kts | 23° |
| 2026-05-04 00:11 | 68.21274 | -106.56297 | 1317 ft | 111 kts | 25° |
| 2026-05-04 00:11 | 68.21969 | -106.55509 | 1458 ft | 104 kts | 31° |
| 2026-05-04 00:11 | 68.22577 | -106.54628 | 1675 ft | 98 kts | 34° |
| 2026-05-04 00:11 | 68.23184 | -106.53755 | 1838 ft | 100 kts | 35° |
| 2026-05-04 00:12 | 68.23799 | -106.52820 | 2012 ft | 102 kts | 35° |
| 2026-05-04 00:12 | 68.24410 | -106.51911 | 2262 ft | 100 kts | 35° |
| 2026-05-04 00:12 | 68.25034 | -106.51060 | 2420 ft | 101 kts | 32° |
| 2026-05-04 00:12 | 68.25639 | -106.50251 | 2621 ft | 95 kts | 33° |
| 2026-05-04 00:13 | 68.26238 | -106.49422 | 2758 ft | 98 kts | 31° |
| 2026-05-04 00:13 | 68.26859 | -106.48648 | 2922 ft | 98 kts | 30° |
| 2026-05-04 00:13 | 68.27480 | -106.47935 | 3098 ft | 97 kts | 30° |
| 2026-05-04 00:13 | 68.28093 | -106.47177 | 3223 ft | 99 kts | 34° |
| 2026-05-04 00:14 | 68.28675 | -106.46222 | 3393 ft | 95 kts | 40° |
| 2026-05-04 00:14 | 68.29209 | -106.45155 | 3492 ft | 99 kts | 44° |
| 2026-05-04 00:14 | 68.29575 | -106.44371 | 3532 ft | 104 kts | 44° |
| 2026-05-04 00:14 | 68.30143 | -106.43126 | 3624 ft | 103 kts | 48° |
| 2026-05-04 00:15 | 68.30865 | -106.41346 | 3486 ft | 109 kts | 47° |
| 2026-05-04 00:15 | 68.31243 | -106.40446 | 3409 ft | 110 kts | 47° |
| 2026-05-04 00:15 | 68.31827 | -106.39081 | 3361 ft | 110 kts | 45° |
| 2026-05-04 00:15 | 68.32414 | -106.37783 | 3335 ft | 109 kts | 43° |
| 2026-05-04 00:16 | 68.33038 | -106.36552 | 3239 ft | 111 kts | 42° |
| 2026-05-04 00:16 | 68.33661 | -106.35291 | 3100 ft | 113 kts | 42° |
| 2026-05-04 00:16 | 68.34321 | -106.34130 | 3074 ft | 111 kts | 40° |
| 2026-05-04 00:16 | 68.34924 | -106.32871 | 3054 ft | 110 kts | 44° |
| 2026-05-04 00:17 | 68.35538 | -106.31612 | 2987 ft | 110 kts | 41° |
| 2026-05-04 00:17 | 68.36145 | -106.30348 | 2897 ft | 110 kts | 46° |
| 2026-05-04 00:17 | 68.36732 | -106.29000 | 2778 ft | 113 kts | 45° |
| 2026-05-04 00:17 | 68.37369 | -106.27652 | 2613 ft | 116 kts | 43° |
| 2026-05-04 00:18 | 68.38021 | -106.26364 | 2509 ft | 115 kts | 40° |
| 2026-05-04 00:18 | 68.38677 | -106.25147 | 2414 ft | 114 kts | 39° |
| 2026-05-04 00:18 | 68.39344 | -106.23947 | 2286 ft | 116 kts | 39° |
| 2026-05-04 00:18 | 68.40028 | -106.22727 | 2160 ft | 116 kts | 38° |
| 2026-05-04 00:19 | 68.40723 | -106.21563 | 1997 ft | 120 kts | 36° |
| 2026-05-04 00:19 | 68.41451 | -106.20427 | 1800 ft | 121 kts | 34° |
| 2026-05-04 00:19 | 68.42195 | -106.19352 | 1615 ft | 121 kts | 33° |
| 2026-05-04 00:19 | 68.42948 | -106.18325 | 1440 ft | 120 kts | 32° |
| 2026-05-04 00:20 | 68.43688 | -106.17357 | 1264 ft | 114 kts | 31° |
| 2026-05-04 00:20 | 68.44359 | -106.16474 | 1168 ft | 104 kts | 32° |
| 2026-05-04 00:20 | 68.44993 | -106.15628 | 1105 ft | 99 kts | 33° |
| 2026-05-04 00:20 | 68.45609 | -106.14849 | 1055 ft | 96 kts | 31° |
| 2026-05-04 00:21 | 68.46242 | -106.14039 | 961 ft | 103 kts | 31° |
| 2026-05-04 00:21 | 68.46869 | -106.13172 | 954 ft | 101 kts | 33° |
| 2026-05-04 00:21 | 68.47493 | -106.12282 | 902 ft | 102 kts | 34° |
| 2026-05-04 00:21 | 68.48110 | -106.11344 | 900 ft | 100 kts | 35° |
| 2026-05-04 00:22 | 68.48731 | -106.10448 | 858 ft | 102 kts | 33° |
| 2026-05-04 00:22 | 68.49360 | -106.09587 | 860 ft | 100 kts | 33° |
| 2026-05-04 00:22 | 68.49985 | -106.08724 | 842 ft | 101 kts | 32° |
| 2026-05-04 00:22 | 68.50609 | -106.07858 | 822 ft | 101 kts | 34° |
| 2026-05-04 00:23 | 68.51231 | -106.06984 | 798 ft | 101 kts | 34° |
| 2026-05-04 00:23 | 68.51851 | -106.06090 | 776 ft | 101 kts | 33° |
| 2026-05-04 00:23 | 68.52468 | -106.05206 | 771 ft | 99 kts | 34° |
| 2026-05-04 00:23 | 68.53074 | -106.04303 | 766 ft | 98 kts | 34° |
| 2026-05-04 00:24 | 68.53686 | -106.03441 | 767 ft | 100 kts | 33° |
| 2026-05-04 00:24 | 68.54297 | -106.02625 | 770 ft | 97 kts | 33° |
| 2026-05-04 00:24 | 68.54889 | -106.01773 | 775 ft | 96 kts | 34° |
| 2026-05-04 00:24 | 68.55472 | -106.00906 | 778 ft | 96 kts | 34° |
| 2026-05-04 00:25 | 68.56053 | -106.00059 | 820 ft | 93 kts | 34° |
| 2026-05-04 00:25 | 68.56618 | -105.99204 | 836 ft | 94 kts | 37° |
| 2026-05-04 00:25 | 68.57213 | -105.98317 | 792 ft | 100 kts | 31° |
| 2026-05-04 00:25 | 68.57867 | -105.97676 | 828 ft | 97 kts | 24° |
| 2026-05-04 00:26 | 68.58501 | -105.97005 | 853 ft | 100 kts | 30° |
| 2026-05-04 00:26 | 68.59140 | -105.96194 | 884 ft | 101 kts | 33° |
| 2026-05-04 00:26 | 68.59771 | -105.95377 | 938 ft | 101 kts | 27° |
| 2026-05-04 00:26 | 68.60430 | -105.94659 | 984 ft | 102 kts | 26° |
| 2026-05-04 00:27 | 68.61119 | -105.94149 | 1020 ft | 103 kts | 24° |
| 2026-05-04 00:27 | 68.61765 | -105.93317 | 1048 ft | 101 kts | 33° |
| 2026-05-04 00:27 | 68.62396 | -105.92474 | 1084 ft | 103 kts | 31° |
| 2026-05-04 00:27 | 68.63044 | -105.91648 | 1101 ft | 103 kts | 32° |
| 2026-05-04 00:28 | 68.63693 | -105.90770 | 1100 ft | 104 kts | 35° |
| 2026-05-04 00:28 | 68.64310 | -105.89785 | 1153 ft | 102 kts | 38° |
| 2026-05-04 00:28 | 68.64916 | -105.88845 | 1218 ft | 101 kts | 35° |
| 2026-05-04 00:28 | 68.65529 | -105.87884 | 1232 ft | 103 kts | 37° |
| 2026-05-04 00:29 | 68.66154 | -105.86906 | 1245 ft | 103 kts | 35° |
| 2026-05-04 00:29 | 68.66779 | -105.85902 | 1279 ft | 104 kts | 38° |
| 2026-05-04 00:29 | 68.67408 | -105.84895 | 1298 ft | 103 kts | 35° |
| 2026-05-04 00:29 | 68.68028 | -105.83904 | 1288 ft | 105 kts | 38° |
| 2026-05-04 00:30 | 68.68653 | -105.82881 | 1302 ft | 105 kts | 36° |
| 2026-05-04 00:30 | 68.69288 | -105.81860 | 1273 ft | 106 kts | 36° |
| 2026-05-04 00:30 | 68.69920 | -105.80854 | 1274 ft | 105 kts | 37° |
| 2026-05-04 00:30 | 68.70558 | -105.79838 | 1259 ft | 106 kts | 36° |
| 2026-05-04 00:31 | 68.71196 | -105.78849 | 1259 ft | 104 kts | 35° |
| 2026-05-04 00:31 | 68.71834 | -105.77877 | 1238 ft | 105 kts | 36° |
| 2026-05-04 00:31 | 68.72466 | -105.76888 | 1231 ft | 104 kts | 36° |
| 2026-05-04 00:31 | 68.73097 | -105.75904 | 1221 ft | 104 kts | 35° |
| 2026-05-04 00:32 | 68.73732 | -105.74945 | 1208 ft | 105 kts | 34° |
| 2026-05-04 00:32 | 68.74371 | -105.73941 | 1218 ft | 103 kts | 36° |
| 2026-05-04 00:32 | 68.74993 | -105.72950 | 1236 ft | 103 kts | 36° |
| 2026-05-04 00:32 | 68.75614 | -105.71984 | 1254 ft | 104 kts | 35° |
| 2026-05-04 00:33 | 68.76245 | -105.71015 | 1270 ft | 104 kts | 34° |
| 2026-05-04 00:33 | 68.77530 | -105.69169 | 1341 ft | 104 kts | 33° |
| 2026-05-04 00:33 | 68.78170 | -105.68257 | 1371 ft | 105 kts | 34° |
| 2026-05-04 00:34 | 68.78818 | -105.67333 | 1409 ft | 104 kts | 32° |
| 2026-05-04 00:34 | 68.79469 | -105.66441 | 1448 ft | 104 kts | 33° |
| 2026-05-04 00:34 | 68.80115 | -105.65506 | 1454 ft | 105 kts | 34° |
| 2026-05-04 00:34 | 68.80749 | -105.64527 | 1481 ft | 105 kts | 36° |
| 2026-05-04 00:35 | 68.81385 | -105.63515 | 1485 ft | 106 kts | 35° |
| 2026-05-04 00:35 | 68.82031 | -105.62550 | 1513 ft | 105 kts | 34° |
| 2026-05-04 00:35 | 68.82683 | -105.61621 | 1504 ft | 106 kts | 33° |
| 2026-05-04 00:35 | 68.83333 | -105.60670 | 1492 ft | 106 kts | 33° |
| 2026-05-04 00:36 | 68.83990 | -105.59728 | 1472 ft | 106 kts | 34° |
| 2026-05-04 00:36 | 68.84656 | -105.58791 | 1458 ft | 106 kts | 33° |
| 2026-05-04 00:36 | 68.85323 | -105.57900 | 1442 ft | 107 kts | 32° |
| 2026-05-04 00:36 | 68.85996 | -105.56988 | 1435 ft | 107 kts | 32° |
| 2026-05-04 00:37 | 68.86654 | -105.56092 | 1455 ft | 106 kts | 32° |
| 2026-05-04 00:37 | 68.87338 | -105.55212 | 1397 ft | 110 kts | 31° |
| 2026-05-04 00:37 | 68.88033 | -105.54311 | 1340 ft | 113 kts | 31° |
| 2026-05-04 00:37 | 68.88744 | -105.53392 | 1302 ft | 111 kts | 31° |
| 2026-05-04 00:38 | 68.89437 | -105.52490 | 1294 ft | 110 kts | 32° |
| 2026-05-04 00:38 | 68.90120 | -105.51580 | 1270 ft | 109 kts | 31° |
| 2026-05-04 00:38 | 68.90814 | -105.50676 | 1217 ft | 110 kts | 32° |
| 2026-05-04 00:38 | 68.91496 | -105.49764 | 1212 ft | 108 kts | 32° |
| 2026-05-04 00:39 | 68.92146 | -105.48873 | 1277 ft | 102 kts | 33° |
| 2026-05-04 00:39 | 68.92788 | -105.48005 | 1264 ft | 104 kts | 31° |
| 2026-05-04 00:39 | 68.93453 | -105.47127 | 1207 ft | 107 kts | 32° |
| 2026-05-04 00:39 | 68.94129 | -105.46202 | 1139 ft | 109 kts | 33° |
| 2026-05-04 00:40 | 68.94796 | -105.45241 | 1103 ft | 108 kts | 34° |
| 2026-05-04 00:40 | 68.95466 | -105.44270 | 1051 ft | 109 kts | 33° |
| 2026-05-04 00:40 | 68.96137 | -105.43261 | 923 ft | 113 kts | 35° |
| 2026-05-04 00:40 | 68.96820 | -105.42162 | 817 ft | 112 kts | 37° |
| 2026-05-04 00:41 | 68.97495 | -105.41106 | 739 ft | 113 kts | 31° |
| 2026-05-04 00:41 | 68.98211 | -105.40265 | 676 ft | 110 kts | 32° |
| 2026-05-04 00:41 | 68.98881 | -105.39164 | 559 ft | 112 kts | 38° |
| 2026-05-04 00:41 | 68.99531 | -105.37985 | 496 ft | 108 kts | 38° |
| 2026-05-04 00:42 | 69.00139 | -105.36870 | 514 ft | 103 kts | 37° |
| 2026-05-04 00:42 | 69.00722 | -105.35813 | 589 ft | 95 kts | 38° |
| 2026-05-04 00:42 | 69.01254 | -105.34878 | 675 ft | 90 kts | 38° |
| 2026-05-04 00:42 | 69.01789 | -105.33959 | 711 ft | 92 kts | 38° |
| 2026-05-04 00:43 | 69.02346 | -105.32960 | 656 ft | 98 kts | 39° |
| 2026-05-04 00:43 | 69.02908 | -105.31897 | 645 ft | 98 kts | 40° |
| 2026-05-04 00:43 | 69.03474 | -105.30833 | 646 ft | 97 kts | 39° |
| 2026-05-04 00:43 | 69.04037 | -105.29761 | 616 ft | 99 kts | 40° |
| 2026-05-04 00:44 | 69.04579 | -105.28647 | 634 ft | 96 kts | 42° |
| 2026-05-04 00:44 | 69.05117 | -105.27540 | 613 ft | 98 kts | 41° |
| 2026-05-04 00:44 | 69.05669 | -105.26413 | 596 ft | 98 kts | 42° |
| 2026-05-04 00:44 | 69.06222 | -105.25307 | 578 ft | 98 kts | 40° |
| 2026-05-04 00:45 | 69.06775 | -105.24230 | 579 ft | 96 kts | 41° |
| 2026-05-04 00:45 | 69.07309 | -105.23039 | 526 ft | 97 kts | 45° |
| 2026-05-04 00:45 | 69.07815 | -105.21823 | 529 ft | 95 kts | 46° |
| 2026-05-04 00:45 | 69.08316 | -105.20590 | 465 ft | 98 kts | 47° |
| 2026-05-04 00:46 | 69.08831 | -105.19312 | 408 ft | 99 kts | 45° |
| 2026-05-04 00:46 | 69.09360 | -105.18055 | 355 ft | 100 kts | 44° |
| 2026-05-04 00:46 | 69.09892 | -105.16813 | 294 ft | 101 kts | 47° |
| 2026-05-04 00:46 | 69.10404 | -105.15466 | 254 ft | 98 kts | 48° |
| 2026-05-04 00:47 | 69.10865 | -105.14149 | 270 ft | 91 kts | 53° |
| 2026-05-04 00:47 | 69.11292 | -105.12801 | 214 ft | 97 kts | 50° |
| 2026-05-04 00:47 | 69.11676 | -105.11408 | 308 ft | 83 kts | 67° |
| 2026-05-04 00:47 | 69.11883 | -105.09974 | 372 ft | 79 kts | 79° |
| 2026-05-04 00:48 | 69.11866 | -105.08452 | 405 ft | 79 kts | 105° |
| 2026-05-04 00:48 | 69.11686 | -105.07044 | 445 ft | 78 kts | 112° |
| 2026-05-04 00:48 | 69.11538 | -105.05619 | 492 ft | 80 kts | 79° |
| 2026-05-04 00:48 | 69.12002 | -105.04347 | 270 ft | 106 kts | 36° |
| 2026-05-04 00:49 | 69.12716 | -105.04023 | 224 ft | 109 kts | 345° |
| 2026-05-04 00:49 | 69.13301 | -105.05254 | 284 ft | 104 kts | 316° |
| 2026-05-04 00:49 | 69.13603 | -105.06968 | 315 ft | 101 kts | 268° |
| 2026-05-04 00:49 | 69.13339 | -105.08707 | 292 ft | 96 kts | 225° |
| 2026-05-04 00:50 | 69.12863 | -105.10029 | 247 ft | 99 kts | 219° |
| 2026-05-04 00:50 | 69.12527 | -105.11578 | 324 ft | 94 kts | 282° |
| 2026-05-04 00:50 | 69.12864 | -105.13130 | 314 ft | 99 kts | 307° |
| 2026-05-04 00:50 | 69.13238 | -105.14712 | 382 ft | 92 kts | 307° |
| 2026-05-04 00:51 | 69.13425 | -105.16311 | 385 ft | 88 kts | 252° |
| 2026-05-04 00:51 | 69.13093 | -105.17613 | 386 ft | 83 kts | 217° |
| 2026-05-04 00:51 | 69.12587 | -105.18568 | 360 ft | 91 kts | 182° |
| 2026-05-04 00:51 | 69.12024 | -105.18050 | 339 ft | 89 kts | 136° |
| 2026-05-04 00:52 | 69.11628 | -105.16720 | 318 ft | 79 kts | 124° |
| 2026-05-04 00:52 | 69.11327 | -105.15543 | 195 ft | 73 kts | 122° |
| 2026-05-04 00:52 | 69.11039 | -105.14459 | 102 ft | 62 kts | 127° |
| 2026-05-04 00:52 | 69.10837 | -105.13696 | 87 ft | 38 kts | 128° |
| 2026-05-04 00:53 | 69.10724 | -105.13302 | 89 ft | 20 kts | 126° |
| 2026-05-04 00:53 | 69.10656 | -105.13023 | 80 ft | 16 kts | 101° |
| 2026-05-04 00:53 | 69.10618 | -105.12799 | 79 ft | 8 kts | 126° |
| 2026-05-04 00:53 | 69.10607 | -105.12753 | 79 ft | 0 kts | 126° |
| 2026-05-04 00:54 | 69.10598 | -105.12721 | 70 ft | 5 kts | 125° |
| 2026-05-04 00:54 | 69.10592 | -105.12646 | 75 ft | 2 kts | 47° |
| 2026-05-04 00:54 | 69.10593 | -105.12644 | 74 ft | 0 kts | 46° |
| 2026-05-04 00:54 | 69.10603 | -105.12592 | 80 ft | 5 kts | 95° |
| 2026-05-04 00:55 | 69.10597 | -105.12578 | 81 ft | 0 kts | 173° |
| 2026-05-04 00:56 | 69.10596 | -105.12579 | 84 ft | 2 kts | 158° |
| 2026-05-04 00:56 | 69.10596 | -105.12578 | 83 ft | 0 kts | 171° |
| 2026-05-04 00:56 | 69.10596 | -105.12577 | 83 ft | 0 kts | 151° |